sensor_id;sensor_type;location;lat;lon;timestamp;pressure;altitude;pressure_sealevel;temperature
40199;BMP280;25906;43.536;26.068;2022-08-18T00:01:04;98145.13;;;22.45
40199;BMP280;25906;43.536;26.068;2022-08-18T00:03:49;98145.03;;;22.39
40199;BMP280;25906;43.536;26.068;2022-08-18T00:06:35;98143.53;;;22.30
40199;BMP280;25906;43.536;26.068;2022-08-18T00:09:21;98155.81;;;22.23
40199;BMP280;25906;43.536;26.068;2022-08-18T00:15:07;98148.38;;;21.91
40199;BMP280;25906;43.536;26.068;2022-08-18T00:17:53;98154.06;;;22.01
40199;BMP280;25906;43.536;26.068;2022-08-18T00:20:39;98148.56;;;22.02
40199;BMP280;25906;43.536;26.068;2022-08-18T00:23:25;98154.75;;;22.01
40199;BMP280;25906;43.536;26.068;2022-08-18T00:26:14;98161.00;;;22.02
40199;BMP280;25906;43.536;26.068;2022-08-18T00:29:00;98155.09;;;21.82
40199;BMP280;25906;43.536;26.068;2022-08-18T00:31:45;98152.56;;;21.94
40199;BMP280;25906;43.536;26.068;2022-08-18T00:47:15;98152.31;;;21.78
40199;BMP280;25906;43.536;26.068;2022-08-18T00:50:00;98159.09;;;21.75
40199;BMP280;25906;43.536;26.068;2022-08-18T00:52:54;98155.75;;;21.78
40199;BMP280;25906;43.536;26.068;2022-08-18T00:55:42;98159.16;;;21.79
40199;BMP280;25906;43.536;26.068;2022-08-18T00:58:43;98146.06;;;21.77
40199;BMP280;25906;43.536;26.068;2022-08-18T01:01:31;98154.22;;;21.69
40199;BMP280;25906;43.536;26.068;2022-08-18T01:07:29;98160.94;;;21.61
40199;BMP280;25906;43.536;26.068;2022-08-18T01:10:19;98156.84;;;21.64
40199;BMP280;25906;43.536;26.068;2022-08-18T01:13:06;98160.13;;;21.56
40199;BMP280;25906;43.536;26.068;2022-08-18T01:15:51;98157.38;;;21.56
40199;BMP280;25906;43.536;26.068;2022-08-18T01:18:37;98155.03;;;21.41
40199;BMP280;25906;43.536;26.068;2022-08-18T01:21:49;98161.41;;;21.49
40199;BMP280;25906;43.536;26.068;2022-08-18T01:24:36;98162.88;;;21.56
40199;BMP280;25906;43.536;26.068;2022-08-18T01:27:40;98160.84;;;21.57
40199;BMP280;25906;43.536;26.068;2022-08-18T01:30:26;98165.09;;;21.28
40199;BMP280;25906;43.536;26.068;2022-08-18T01:33:12;98163.00;;;21.27
40199;BMP280;25906;43.536;26.068;2022-08-18T01:36:08;98161.94;;;21.09
40199;BMP280;25906;43.536;26.068;2022-08-18T01:38:58;98167.84;;;21.28
40199;BMP280;25906;43.536;26.068;2022-08-18T01:41:44;98164.41;;;21.30
40199;BMP280;25906;43.536;26.068;2022-08-18T01:44:29;98155.97;;;21.20
40199;BMP280;25906;43.536;26.068;2022-08-18T01:47:16;98156.50;;;21.13
40199;BMP280;25906;43.536;26.068;2022-08-18T01:50:03;98157.06;;;20.76
40199;BMP280;25906;43.536;26.068;2022-08-18T01:52:49;98156.34;;;20.74
40199;BMP280;25906;43.536;26.068;2022-08-18T01:55:40;98170.69;;;20.68
40199;BMP280;25906;43.536;26.068;2022-08-18T01:58:29;98162.78;;;20.55
40199;BMP280;25906;43.536;26.068;2022-08-18T02:01:15;98162.56;;;20.74
40199;BMP280;25906;43.536;26.068;2022-08-18T02:04:01;98162.91;;;20.90
40199;BMP280;25906;43.536;26.068;2022-08-18T02:06:46;98172.09;;;21.00
40199;BMP280;25906;43.536;26.068;2022-08-18T02:09:32;98175.53;;;21.01
40199;BMP280;25906;43.536;26.068;2022-08-18T02:12:17;98170.69;;;20.99
40199;BMP280;25906;43.536;26.068;2022-08-18T02:15:04;98175.00;;;21.08
40199;BMP280;25906;43.536;26.068;2022-08-18T02:17:49;98179.22;;;21.13
40199;BMP280;25906;43.536;26.068;2022-08-18T02:20:35;98175.09;;;21.12
40199;BMP280;25906;43.536;26.068;2022-08-18T02:23:20;98175.78;;;21.13
40199;BMP280;25906;43.536;26.068;2022-08-18T02:26:08;98185.34;;;21.08
40199;BMP280;25906;43.536;26.068;2022-08-18T02:28:53;98186.94;;;21.19
40199;BMP280;25906;43.536;26.068;2022-08-18T02:31:39;98188.28;;;21.18
40199;BMP280;25906;43.536;26.068;2022-08-18T02:34:25;98191.75;;;21.18
40199;BMP280;25906;43.536;26.068;2022-08-18T02:37:11;98185.53;;;21.18
40199;BMP280;25906;43.536;26.068;2022-08-18T02:39:57;98192.50;;;21.21
40199;BMP280;25906;43.536;26.068;2022-08-18T02:42:44;98186.25;;;21.18
40199;BMP280;25906;43.536;26.068;2022-08-18T02:45:30;98199.19;;;21.12
40199;BMP280;25906;43.536;26.068;2022-08-18T02:48:15;98199.91;;;21.14
40199;BMP280;25906;43.536;26.068;2022-08-18T02:51:15;98195.72;;;21.11
40199;BMP280;25906;43.536;26.068;2022-08-18T02:54:00;98196.88;;;21.02
40199;BMP280;25906;43.536;26.068;2022-08-18T02:56:46;98200.16;;;20.95
40199;BMP280;25906;43.536;26.068;2022-08-18T02:59:32;98207.00;;;20.92
40199;BMP280;25906;43.536;26.068;2022-08-18T03:02:17;98209.00;;;20.60
40199;BMP280;25906;43.536;26.068;2022-08-18T03:05:05;98211.75;;;20.60
40199;BMP280;25906;43.536;26.068;2022-08-18T03:07:51;98216.09;;;20.69
40199;BMP280;25906;43.536;26.068;2022-08-18T03:10:36;98221.69;;;20.73
40199;BMP280;25906;43.536;26.068;2022-08-18T03:13:23;98216.19;;;20.73
40199;BMP280;25906;43.536;26.068;2022-08-18T03:16:09;98225.97;;;20.80
40199;BMP280;25906;43.536;26.068;2022-08-18T03:18:55;98224.53;;;20.77
40199;BMP280;25906;43.536;26.068;2022-08-18T03:21:44;98232.09;;;20.77
40199;BMP280;25906;43.536;26.068;2022-08-18T03:24:31;98231.44;;;20.78
40199;BMP280;25906;43.536;26.068;2022-08-18T03:27:16;98228.56;;;20.72
40199;BMP280;25906;43.536;26.068;2022-08-18T03:30:03;98228.59;;;20.74
40199;BMP280;25906;43.536;26.068;2022-08-18T03:32:49;98226.22;;;20.61
40199;BMP280;25906;43.536;26.068;2022-08-18T03:35:36;98225.13;;;20.45
40199;BMP280;25906;43.536;26.068;2022-08-18T03:38:21;98232.16;;;20.51
40199;BMP280;25906;43.536;26.068;2022-08-18T03:41:10;98236.22;;;20.48
40199;BMP280;25906;43.536;26.068;2022-08-18T03:43:58;98239.19;;;20.04
40199;BMP280;25906;43.536;26.068;2022-08-18T03:46:44;98242.19;;;20.14
40199;BMP280;25906;43.536;26.068;2022-08-18T03:49:30;98243.81;;;19.98
40199;BMP280;25906;43.536;26.068;2022-08-18T03:52:17;98241.44;;;20.11
40199;BMP280;25906;43.536;26.068;2022-08-18T03:55:04;98235.50;;;20.21
40199;BMP280;25906;43.536;26.068;2022-08-18T03:57:50;98237.53;;;20.47
40199;BMP280;25906;43.536;26.068;2022-08-18T04:00:37;98242.09;;;20.64
40199;BMP280;25906;43.536;26.068;2022-08-18T04:03:23;98243.25;;;20.83
40199;BMP280;25906;43.536;26.068;2022-08-18T04:06:20;98239.31;;;20.91
40199;BMP280;25906;43.536;26.068;2022-08-18T04:09:10;98243.69;;;21.02
40199;BMP280;25906;43.536;26.068;2022-08-18T04:11:57;98244.69;;;21.17
40199;BMP280;25906;43.536;26.068;2022-08-18T04:14:47;98246.22;;;21.24
40199;BMP280;25906;43.536;26.068;2022-08-18T04:17:32;98255.56;;;21.40
40199;BMP280;25906;43.536;26.068;2022-08-18T04:20:18;98258.00;;;21.57
40199;BMP280;25906;43.536;26.068;2022-08-18T04:23:03;98265.88;;;21.72
40199;BMP280;25906;43.536;26.068;2022-08-18T04:25:59;98268.81;;;21.80
40199;BMP280;25906;43.536;26.068;2022-08-18T04:28:45;98278.34;;;21.75
40199;BMP280;25906;43.536;26.068;2022-08-18T04:31:30;98275.34;;;21.64
40199;BMP280;25906;43.536;26.068;2022-08-18T04:34:18;98278.63;;;21.56
40199;BMP280;25906;43.536;26.068;2022-08-18T04:37:07;98291.78;;;21.60
40199;BMP280;25906;43.536;26.068;2022-08-18T04:39:52;98287.06;;;21.64
40199;BMP280;25906;43.536;26.068;2022-08-18T04:42:38;98273.34;;;21.68
40199;BMP280;25906;43.536;26.068;2022-08-18T04:45:23;98286.28;;;21.60
40199;BMP280;25906;43.536;26.068;2022-08-18T04:48:09;98284.97;;;21.64
40199;BMP280;25906;43.536;26.068;2022-08-18T04:50:55;98283.63;;;21.65
40199;BMP280;25906;43.536;26.068;2022-08-18T04:53:42;98280.13;;;21.61
40199;BMP280;25906;43.536;26.068;2022-08-18T04:56:35;98276.88;;;21.72
40199;BMP280;25906;43.536;26.068;2022-08-18T04:59:20;98279.22;;;21.86
40199;BMP280;25906;43.536;26.068;2022-08-18T05:02:06;98275.59;;;21.75
40199;BMP280;25906;43.536;26.068;2022-08-18T05:04:52;98275.00;;;21.81
40199;BMP280;25906;43.536;26.068;2022-08-18T05:07:43;98268.47;;;22.00
40199;BMP280;25906;43.536;26.068;2022-08-18T05:10:29;98271.41;;;22.07
40199;BMP280;25906;43.536;26.068;2022-08-18T05:13:15;98271.47;;;22.11
40199;BMP280;25906;43.536;26.068;2022-08-18T05:16:01;98275.06;;;22.20
40199;BMP280;25906;43.536;26.068;2022-08-18T05:18:47;98279.28;;;22.25
40199;BMP280;25906;43.536;26.068;2022-08-18T05:21:33;98279.56;;;22.40
40199;BMP280;25906;43.536;26.068;2022-08-18T05:24:21;98282.38;;;22.42
40199;BMP280;25906;43.536;26.068;2022-08-18T05:27:07;98286.06;;;22.57
40199;BMP280;25906;43.536;26.068;2022-08-18T05:29:53;98287.72;;;22.74
40199;BMP280;25906;43.536;26.068;2022-08-18T05:32:44;98283.88;;;22.92
40199;BMP280;25906;43.536;26.068;2022-08-18T05:35:40;98281.22;;;22.98
40199;BMP280;25906;43.536;26.068;2022-08-18T05:38:49;98287.38;;;22.97
40199;BMP280;25906;43.536;26.068;2022-08-18T05:41:43;98284.22;;;23.16
40199;BMP280;25906;43.536;26.068;2022-08-18T05:44:33;98276.81;;;23.30
40199;BMP280;25906;43.536;26.068;2022-08-18T05:50:15;98288.13;;;23.50
40199;BMP280;25906;43.536;26.068;2022-08-18T05:53:08;98286.22;;;23.60
40199;BMP280;25906;43.536;26.068;2022-08-18T05:56:02;98290.47;;;23.71
40199;BMP280;25906;43.536;26.068;2022-08-18T05:59:08;98287.75;;;23.73
40199;BMP280;25906;43.536;26.068;2022-08-18T06:02:00;98292.66;;;23.81
40199;BMP280;25906;43.536;26.068;2022-08-18T06:04:55;98295.56;;;23.94
40199;BMP280;25906;43.536;26.068;2022-08-18T06:07:44;98292.81;;;23.94
40199;BMP280;25906;43.536;26.068;2022-08-18T06:10:35;98294.31;;;24.05
40199;BMP280;25906;43.536;26.068;2022-08-18T06:13:20;98295.09;;;24.14
40199;BMP280;25906;43.536;26.068;2022-08-18T06:16:37;98302.06;;;24.21
40199;BMP280;25906;43.536;26.068;2022-08-18T06:22:43;98305.06;;;24.44
40199;BMP280;25906;43.536;26.068;2022-08-18T06:28:39;98303.19;;;24.66
40199;BMP280;25906;43.536;26.068;2022-08-18T06:34:50;98303.94;;;24.77
40199;BMP280;25906;43.536;26.068;2022-08-18T06:41:13;98296.44;;;24.95
40199;BMP280;25906;43.536;26.068;2022-08-18T06:50:03;98289.78;;;25.43
40199;BMP280;25906;43.536;26.068;2022-08-18T06:52:57;98302.31;;;25.48
40199;BMP280;25906;43.536;26.068;2022-08-18T06:55:45;98307.88;;;25.58
40199;BMP280;25906;43.536;26.068;2022-08-18T06:58:31;98310.03;;;25.79
40199;BMP280;25906;43.536;26.068;2022-08-18T07:01:17;98311.47;;;26.00
40199;BMP280;25906;43.536;26.068;2022-08-18T07:04:02;98307.38;;;26.25
40199;BMP280;25906;43.536;26.068;2022-08-18T07:06:48;98306.69;;;26.38
40199;BMP280;25906;43.536;26.068;2022-08-18T07:09:33;98310.88;;;26.45
40199;BMP280;25906;43.536;26.068;2022-08-18T07:12:22;98313.63;;;26.59
40199;BMP280;25906;43.536;26.068;2022-08-18T07:15:11;98314.31;;;26.73
40199;BMP280;25906;43.536;26.068;2022-08-18T07:18:06;98319.84;;;26.89
40199;BMP280;25906;43.536;26.068;2022-08-18T07:20:58;98321.88;;;27.12
40199;BMP280;25906;43.536;26.068;2022-08-18T07:24:04;98328.84;;;27.13
40199;BMP280;25906;43.536;26.068;2022-08-18T07:27:00;98319.78;;;27.16
40199;BMP280;25906;43.536;26.068;2022-08-18T07:32:48;98313.31;;;27.69
40199;BMP280;25906;43.536;26.068;2022-08-18T07:35:43;98313.91;;;27.87
40199;BMP280;25906;43.536;26.068;2022-08-18T07:38:37;98320.88;;;27.84
40199;BMP280;25906;43.536;26.068;2022-08-18T07:41:33;98312.47;;;27.98
40199;BMP280;25906;43.536;26.068;2022-08-18T07:47:33;98317.94;;;28.12
40199;BMP280;25906;43.536;26.068;2022-08-18T07:50:22;98323.19;;;28.53
40199;BMP280;25906;43.536;26.068;2022-08-18T08:00:03;98318.53;;;29.00
40199;BMP280;25906;43.536;26.068;2022-08-18T08:03:05;98328.81;;;29.17
40199;BMP280;25906;43.536;26.068;2022-08-18T08:12:01;98326.50;;;29.33
40199;BMP280;25906;43.536;26.068;2022-08-18T08:14:55;98331.84;;;29.53
40199;BMP280;25906;43.536;26.068;2022-08-18T08:21:10;98318.41;;;29.65
40199;BMP280;25906;43.536;26.068;2022-08-18T08:30:05;98321.56;;;29.89
40199;BMP280;25906;43.536;26.068;2022-08-18T08:35:57;98318.88;;;30.25
40199;BMP280;25906;43.536;26.068;2022-08-18T08:38:53;98320.34;;;30.20
40199;BMP280;25906;43.536;26.068;2022-08-18T08:44:47;98314.03;;;30.64
40199;BMP280;25906;43.536;26.068;2022-08-18T08:50:33;98307.25;;;30.89
40199;BMP280;25906;43.536;26.068;2022-08-18T08:53:34;98301.81;;;30.83
40199;BMP280;25906;43.536;26.068;2022-08-18T08:56:28;98303.91;;;31.17
40199;BMP280;25906;43.536;26.068;2022-08-18T08:59:16;98304.16;;;31.05
40199;BMP280;25906;43.536;26.068;2022-08-18T09:05:03;98308.34;;;31.38
40199;BMP280;25906;43.536;26.068;2022-08-18T09:24:05;98303.81;;;31.20
40199;BMP280;25906;43.536;26.068;2022-08-18T09:30:00;98296.84;;;31.51
40199;BMP280;25906;43.536;26.068;2022-08-18T09:32:55;98299.59;;;31.53
40199;BMP280;25906;43.536;26.068;2022-08-18T09:42:30;98298.28;;;31.81
40199;BMP280;25906;43.536;26.068;2022-08-18T09:48:39;98291.25;;;31.82
40199;BMP280;25906;43.536;26.068;2022-08-18T09:51:36;98295.25;;;31.88
40199;BMP280;25906;43.536;26.068;2022-08-18T09:54:27;98297.16;;;31.98
40199;BMP280;25906;43.536;26.068;2022-08-18T09:57:15;98293.22;;;31.87
40199;BMP280;25906;43.536;26.068;2022-08-18T10:05:33;98297.56;;;32.10
40199;BMP280;25906;43.536;26.068;2022-08-18T10:08:38;98289.47;;;31.96
40199;BMP280;25906;43.536;26.068;2022-08-18T10:15:50;98274.75;;;31.98
40199;BMP280;25906;43.536;26.068;2022-08-18T10:19:04;98283.47;;;31.84
40199;BMP280;25906;43.536;26.068;2022-08-18T10:24:43;98293.03;;;31.95
40199;BMP280;25906;43.536;26.068;2022-08-18T10:39:44;98262.31;;;31.91
40199;BMP280;25906;43.536;26.068;2022-08-18T10:45:43;98273.84;;;31.77
40199;BMP280;25906;43.536;26.068;2022-08-18T10:48:31;98269.78;;;32.00
40199;BMP280;25906;43.536;26.068;2022-08-18T10:51:53;98258.72;;;32.20
40199;BMP280;25906;43.536;26.068;2022-08-18T10:55:14;98258.34;;;32.36
40199;BMP280;25906;43.536;26.068;2022-08-18T11:07:13;98258.31;;;32.86
40199;BMP280;25906;43.536;26.068;2022-08-18T11:10:19;98258.66;;;32.75
40199;BMP280;25906;43.536;26.068;2022-08-18T11:16:47;98250.63;;;32.61
40199;BMP280;25906;43.536;26.068;2022-08-18T11:19:37;98248.75;;;33.02
40199;BMP280;25906;43.536;26.068;2022-08-18T11:22:28;98253.22;;;32.93
40199;BMP280;25906;43.536;26.068;2022-08-18T11:25:21;98265.38;;;32.85
40199;BMP280;25906;43.536;26.068;2022-08-18T11:28:20;98251.72;;;32.47
40199;BMP280;25906;43.536;26.068;2022-08-18T11:31:06;98252.28;;;32.26
40199;BMP280;25906;43.536;26.068;2022-08-18T11:33:52;98251.41;;;32.33
40199;BMP280;25906;43.536;26.068;2022-08-18T11:36:38;98261.28;;;32.56
40199;BMP280;25906;43.536;26.068;2022-08-18T11:39:24;98251.13;;;32.43
40199;BMP280;25906;43.536;26.068;2022-08-18T11:42:14;98257.56;;;32.64
40199;BMP280;25906;43.536;26.068;2022-08-18T11:45:15;98245.94;;;32.78
40199;BMP280;25906;43.536;26.068;2022-08-18T11:51:07;98240.31;;;32.78
40199;BMP280;25906;43.536;26.068;2022-08-18T11:57:29;98235.81;;;32.88
40199;BMP280;25906;43.536;26.068;2022-08-18T12:03:26;98223.94;;;32.86
40199;BMP280;25906;43.536;26.068;2022-08-18T12:06:26;98220.50;;;33.08
40199;BMP280;25906;43.536;26.068;2022-08-18T12:09:35;98215.88;;;33.42
40199;BMP280;25906;43.536;26.068;2022-08-18T12:12:27;98219.19;;;33.27
40199;BMP280;25906;43.536;26.068;2022-08-18T12:18:01;98210.38;;;33.16
40199;BMP280;25906;43.536;26.068;2022-08-18T12:20:48;98208.28;;;33.17
40199;BMP280;25906;43.536;26.068;2022-08-18T12:23:34;98216.88;;;33.33
40199;BMP280;25906;43.536;26.068;2022-08-18T12:26:22;98208.09;;;33.23
40199;BMP280;25906;43.536;26.068;2022-08-18T12:29:07;98215.25;;;33.40
40199;BMP280;25906;43.536;26.068;2022-08-18T12:31:54;98207.69;;;33.57
40199;BMP280;25906;43.536;26.068;2022-08-18T12:34:39;98212.81;;;33.50
40199;BMP280;25906;43.536;26.068;2022-08-18T12:37:27;98205.03;;;33.09
40199;BMP280;25906;43.536;26.068;2022-08-18T12:40:13;98201.22;;;32.72
40199;BMP280;25906;43.536;26.068;2022-08-18T12:42:59;98191.72;;;32.61
40199;BMP280;25906;43.536;26.068;2022-08-18T12:45:44;98190.34;;;32.84
40199;BMP280;25906;43.536;26.068;2022-08-18T12:48:31;98177.66;;;33.09
40199;BMP280;25906;43.536;26.068;2022-08-18T12:51:17;98177.13;;;33.25
40199;BMP280;25906;43.536;26.068;2022-08-18T12:54:05;98178.13;;;33.38
40199;BMP280;25906;43.536;26.068;2022-08-18T12:56:53;98171.59;;;33.23
40199;BMP280;25906;43.536;26.068;2022-08-18T12:59:39;98178.25;;;33.34
40199;BMP280;25906;43.536;26.068;2022-08-18T13:02:24;98170.31;;;33.40
40199;BMP280;25906;43.536;26.068;2022-08-18T13:05:10;98164.22;;;33.34
40199;BMP280;25906;43.536;26.068;2022-08-18T13:08:01;98170.88;;;33.00
40199;BMP280;25906;43.536;26.068;2022-08-18T13:10:47;98163.09;;;33.25
40199;BMP280;25906;43.536;26.068;2022-08-18T13:13:33;98152.50;;;33.27
40199;BMP280;25906;43.536;26.068;2022-08-18T13:16:19;98160.09;;;33.31
40199;BMP280;25906;43.536;26.068;2022-08-18T13:19:08;98150.03;;;33.38
40199;BMP280;25906;43.536;26.068;2022-08-18T13:21:54;98140.25;;;33.57
40199;BMP280;25906;43.536;26.068;2022-08-18T13:24:39;98137.16;;;33.44
40199;BMP280;25906;43.536;26.068;2022-08-18T13:27:25;98136.34;;;33.28
40199;BMP280;25906;43.536;26.068;2022-08-18T13:30:14;98132.22;;;33.25
40199;BMP280;25906;43.536;26.068;2022-08-18T13:33:00;98131.88;;;33.35
40199;BMP280;25906;43.536;26.068;2022-08-18T13:35:46;98122.84;;;33.32
40199;BMP280;25906;43.536;26.068;2022-08-18T13:38:32;98132.84;;;33.27
40199;BMP280;25906;43.536;26.068;2022-08-18T13:41:18;98133.22;;;33.15
40199;BMP280;25906;43.536;26.068;2022-08-18T13:44:04;98119.91;;;33.14
40199;BMP280;25906;43.536;26.068;2022-08-18T13:46:50;98129.19;;;32.88
40199;BMP280;25906;43.536;26.068;2022-08-18T13:49:36;98126.13;;;32.96
40199;BMP280;25906;43.536;26.068;2022-08-18T13:52:22;98128.75;;;33.02
40199;BMP280;25906;43.536;26.068;2022-08-18T13:55:10;98122.69;;;33.16
40199;BMP280;25906;43.536;26.068;2022-08-18T13:57:57;98127.56;;;32.95
40199;BMP280;25906;43.536;26.068;2022-08-18T14:00:43;98125.19;;;32.81
40199;BMP280;25906;43.536;26.068;2022-08-18T14:03:30;98122.53;;;32.98
40199;BMP280;25906;43.536;26.068;2022-08-18T14:06:17;98127.69;;;32.91
40199;BMP280;25906;43.536;26.068;2022-08-18T14:09:04;98132.41;;;32.75
40199;BMP280;25906;43.536;26.068;2022-08-18T14:11:50;98126.97;;;32.69
40199;BMP280;25906;43.536;26.068;2022-08-18T14:14:36;98127.72;;;32.67
40199;BMP280;25906;43.536;26.068;2022-08-18T14:17:23;98123.16;;;32.56
40199;BMP280;25906;43.536;26.068;2022-08-18T14:20:09;98115.56;;;32.52
40199;BMP280;25906;43.536;26.068;2022-08-18T14:23:14;98120.66;;;32.46
40199;BMP280;25906;43.536;26.068;2022-08-18T14:26:18;98123.16;;;32.32
40199;BMP280;25906;43.536;26.068;2022-08-18T14:29:22;98118.22;;;32.10
40199;BMP280;25906;43.536;26.068;2022-08-18T14:32:08;98115.72;;;31.98
40199;BMP280;25906;43.536;26.068;2022-08-18T14:34:58;98111.09;;;31.87
40199;BMP280;25906;43.536;26.068;2022-08-18T14:37:45;98112.31;;;31.68
40199;BMP280;25906;43.536;26.068;2022-08-18T14:40:31;98110.13;;;31.72
40199;BMP280;25906;43.536;26.068;2022-08-18T14:43:19;98106.91;;;31.88
40199;BMP280;25906;43.536;26.068;2022-08-18T14:46:06;98110.16;;;31.96
40199;BMP280;25906;43.536;26.068;2022-08-18T14:48:51;98103.28;;;31.91
40199;BMP280;25906;43.536;26.068;2022-08-18T14:51:36;98102.16;;;31.83
40199;BMP280;25906;43.536;26.068;2022-08-18T14:54:27;98105.81;;;31.75
40199;BMP280;25906;43.536;26.068;2022-08-18T14:57:13;98101.66;;;31.48
40199;BMP280;25906;43.536;26.068;2022-08-18T14:59:59;98107.78;;;30.96
40199;BMP280;25906;43.536;26.068;2022-08-18T15:02:45;98103.47;;;30.71
40199;BMP280;25906;43.536;26.068;2022-08-18T15:05:33;98095.94;;;30.64
40199;BMP280;25906;43.536;26.068;2022-08-18T15:08:19;98102.22;;;30.64
40199;BMP280;25906;43.536;26.068;2022-08-18T15:11:05;98099.16;;;30.44
40199;BMP280;25906;43.536;26.068;2022-08-18T15:13:51;98100.78;;;30.33
40199;BMP280;25906;43.536;26.068;2022-08-18T15:16:37;98096.13;;;30.22
40199;BMP280;25906;43.536;26.068;2022-08-18T15:19:23;98099.09;;;30.12
40199;BMP280;25906;43.536;26.068;2022-08-18T15:22:09;98103.16;;;30.19
40199;BMP280;25906;43.536;26.068;2022-08-18T15:25:12;98096.53;;;30.36
40199;BMP280;25906;43.536;26.068;2022-08-18T15:28:21;98088.69;;;30.45
40199;BMP280;25906;43.536;26.068;2022-08-18T15:31:07;98093.28;;;30.58
40199;BMP280;25906;43.536;26.068;2022-08-18T15:33:52;98100.16;;;30.63
40199;BMP280;25906;43.536;26.068;2022-08-18T15:36:39;98096.88;;;30.53
40199;BMP280;25906;43.536;26.068;2022-08-18T15:39:24;98104.75;;;30.44
40199;BMP280;25906;43.536;26.068;2022-08-18T15:42:10;98103.16;;;30.19
40199;BMP280;25906;43.536;26.068;2022-08-18T15:44:59;98097.78;;;30.09
40199;BMP280;25906;43.536;26.068;2022-08-18T15:47:45;98105.03;;;29.94
40199;BMP280;25906;43.536;26.068;2022-08-18T15:50:32;98104.44;;;29.88
40199;BMP280;25906;43.536;26.068;2022-08-18T15:53:19;98102.31;;;29.90
40199;BMP280;25906;43.536;26.068;2022-08-18T16:07:37;98106.03;;;29.77
40199;BMP280;25906;43.536;26.068;2022-08-18T16:10:25;98108.66;;;29.87
40199;BMP280;25906;43.536;26.068;2022-08-18T16:13:11;98108.88;;;29.75
40199;BMP280;25906;43.536;26.068;2022-08-18T16:15:58;98126.41;;;29.70
40199;BMP280;25906;43.536;26.068;2022-08-18T16:18:45;98124.41;;;29.64
40199;BMP280;25906;43.536;26.068;2022-08-18T16:21:31;98118.84;;;29.62
40199;BMP280;25906;43.536;26.068;2022-08-18T16:24:17;98118.47;;;29.44
40199;BMP280;25906;43.536;26.068;2022-08-18T16:27:02;98124.16;;;29.36
40199;BMP280;25906;43.536;26.068;2022-08-18T16:29:50;98125.72;;;29.25
40199;BMP280;25906;43.536;26.068;2022-08-18T16:32:36;98123.13;;;29.14
40199;BMP280;25906;43.536;26.068;2022-08-18T16:35:22;98121.09;;;29.10
40199;BMP280;25906;43.536;26.068;2022-08-18T16:38:08;98122.50;;;29.07
40199;BMP280;25906;43.536;26.068;2022-08-18T16:40:53;98127.41;;;29.07
40199;BMP280;25906;43.536;26.068;2022-08-18T16:43:41;98132.75;;;29.24
40199;BMP280;25906;43.536;26.068;2022-08-18T16:46:28;98136.78;;;29.33
40199;BMP280;25906;43.536;26.068;2022-08-18T16:49:14;98147.22;;;29.35
40199;BMP280;25906;43.536;26.068;2022-08-18T16:51:59;98138.97;;;29.27
40199;BMP280;25906;43.536;26.068;2022-08-18T16:54:46;98136.41;;;29.11
40199;BMP280;25906;43.536;26.068;2022-08-18T16:57:31;98154.59;;;29.08
40199;BMP280;25906;43.536;26.068;2022-08-18T17:00:36;98159.56;;;29.02
40199;BMP280;25906;43.536;26.068;2022-08-18T17:03:40;98155.97;;;29.07
40199;BMP280;25906;43.536;26.068;2022-08-18T17:06:44;98170.13;;;28.91
40199;BMP280;25906;43.536;26.068;2022-08-18T17:09:29;98170.19;;;28.87
40199;BMP280;25906;43.536;26.068;2022-08-18T17:12:15;98166.25;;;28.69
40199;BMP280;25906;43.536;26.068;2022-08-18T17:15:00;98165.13;;;28.44
40199;BMP280;25906;43.536;26.068;2022-08-18T17:17:46;98164.53;;;28.34
40199;BMP280;25906;43.536;26.068;2022-08-18T17:20:33;98161.97;;;28.14
40199;BMP280;25906;43.536;26.068;2022-08-18T17:23:19;98162.78;;;28.01
40199;BMP280;25906;43.536;26.068;2022-08-18T17:26:08;98175.41;;;27.86
40199;BMP280;25906;43.536;26.068;2022-08-18T17:29:39;98172.72;;;27.80
40199;BMP280;25906;43.536;26.068;2022-08-18T17:32:40;98171.34;;;27.73
40199;BMP280;25906;43.536;26.068;2022-08-18T17:35:39;98179.75;;;27.69
40199;BMP280;25906;43.536;26.068;2022-08-18T17:38:29;98177.06;;;27.53
40199;BMP280;25906;43.536;26.068;2022-08-18T17:41:19;98181.28;;;27.45
40199;BMP280;25906;43.536;26.068;2022-08-18T17:44:05;98186.88;;;27.43
40199;BMP280;25906;43.536;26.068;2022-08-18T17:46:51;98181.34;;;27.37
40199;BMP280;25906;43.536;26.068;2022-08-18T17:49:44;98178.69;;;27.19
40199;BMP280;25906;43.536;26.068;2022-08-18T17:52:58;98180.06;;;27.18
40199;BMP280;25906;43.536;26.068;2022-08-18T17:55:53;98183.53;;;27.20
40199;BMP280;25906;43.536;26.068;2022-08-18T17:58:59;98193.97;;;27.20
40199;BMP280;25906;43.536;26.068;2022-08-18T18:02:28;98189.03;;;27.30
40199;BMP280;25906;43.536;26.068;2022-08-18T18:05:18;98199.47;;;27.32
40199;BMP280;25906;43.536;26.068;2022-08-18T18:08:04;98210.63;;;27.20
40199;BMP280;25906;43.536;26.068;2022-08-18T18:10:50;98208.53;;;27.22
40199;BMP280;25906;43.536;26.068;2022-08-18T18:13:36;98214.72;;;27.41
40199;BMP280;25906;43.536;26.068;2022-08-18T18:19:11;98220.31;;;27.31
40199;BMP280;25906;43.536;26.068;2022-08-18T18:22:23;98223.75;;;27.37
40199;BMP280;25906;43.536;26.068;2022-08-18T18:25:11;98225.84;;;27.35
40199;BMP280;25906;43.536;26.068;2022-08-18T18:27:57;98225.84;;;27.37
40199;BMP280;25906;43.536;26.068;2022-08-18T18:30:43;98223.06;;;27.37
40199;BMP280;25906;43.536;26.068;2022-08-18T18:33:30;98232.81;;;27.36
40199;BMP280;25906;43.536;26.068;2022-08-18T18:36:31;98240.50;;;27.29
40199;BMP280;25906;43.536;26.068;2022-08-18T18:39:22;98235.63;;;27.32
40199;BMP280;25906;43.536;26.068;2022-08-18T18:42:14;98245.34;;;27.29
40199;BMP280;25906;43.536;26.068;2022-08-18T18:45:05;98245.41;;;27.21
40199;BMP280;25906;43.536;26.068;2022-08-18T18:48:04;98244.72;;;27.14
40199;BMP280;25906;43.536;26.068;2022-08-18T18:51:00;98254.41;;;27.27
40199;BMP280;25906;43.536;26.068;2022-08-18T18:53:59;98250.25;;;27.18
40199;BMP280;25906;43.536;26.068;2022-08-18T18:56:52;98251.69;;;27.13
40199;BMP280;25906;43.536;26.068;2022-08-18T19:02:42;98261.44;;;27.03
40199;BMP280;25906;43.536;26.068;2022-08-18T19:08:31;98263.53;;;27.00